sensor_id;sensor_type;location;lat;lon;timestamp;pressure;altitude;pressure_sealevel;temperature;humidity
67373;BME280;54257;54.496;18.412;2023-03-23T00:00:27;98785.18;;;10.37;89.85
67373;BME280;54257;54.496;18.412;2023-03-23T00:03:14;98790.30;;;10.35;89.86
67373;BME280;54257;54.496;18.412;2023-03-23T00:05:58;98784.67;;;10.34;89.81
67373;BME280;54257;54.496;18.412;2023-03-23T00:08:55;98785.35;;;10.32;89.93
67373;BME280;54257;54.496;18.412;2023-03-23T00:11:30;98785.02;;;10.30;89.80
67373;BME280;54257;54.496;18.412;2023-03-23T00:14:10;98779.21;;;10.29;89.80
67373;BME280;54257;54.496;18.412;2023-03-23T00:16:45;98779.23;;;10.27;89.74
67373;BME280;54257;54.496;18.412;2023-03-23T00:19:18;98777.16;;;10.23;89.65
67373;BME280;54257;54.496;18.412;2023-03-23T00:21:48;98773.41;;;10.20;89.60
67373;BME280;54257;54.496;18.412;2023-03-23T00:24:33;98775.95;;;10.16;89.55
67373;BME280;54257;54.496;18.412;2023-03-23T00:27:08;98769.32;;;10.12;89.60
67373;BME280;54257;54.496;18.412;2023-03-23T00:29:42;98770.50;;;10.08;89.65
67373;BME280;54257;54.496;18.412;2023-03-23T00:32:16;98771.52;;;10.05;89.66
67373;BME280;54257;54.496;18.412;2023-03-23T00:34:51;98769.32;;;10.02;89.68
67373;BME280;54257;54.496;18.412;2023-03-23T00:37:35;98770.85;;;10.00;89.68
67373;BME280;54257;54.496;18.412;2023-03-23T00:40:11;98772.40;;;9.96;89.79
67373;BME280;54257;54.496;18.412;2023-03-23T00:42:46;98768.98;;;9.94;89.85
67373;BME280;54257;54.496;18.412;2023-03-23T00:45:19;98765.56;;;9.91;89.94
67373;BME280;54257;54.496;18.412;2023-03-23T00:48:02;98762.17;;;9.87;89.74
67373;BME280;54257;54.496;18.412;2023-03-23T00:50:37;98758.05;;;9.84;89.97
67373;BME280;54257;54.496;18.412;2023-03-23T00:53:18;98758.75;;;9.81;90.02
67373;BME280;54257;54.496;18.412;2023-03-23T00:55:54;98762.34;;;9.77;90.13
67373;BME280;54257;54.496;18.412;2023-03-23T00:58:29;98755.16;;;9.75;90.14
67373;BME280;54257;54.496;18.412;2023-03-23T01:01:07;98749.55;;;9.73;90.33
67373;BME280;54257;54.496;18.412;2023-03-23T01:03:38;98741.52;;;9.71;90.30
67373;BME280;54257;54.496;18.412;2023-03-23T01:06:09;98728.74;;;9.70;90.35
67373;BME280;54257;54.496;18.412;2023-03-23T01:08:42;98732.98;;;9.68;90.24
67373;BME280;54257;54.496;18.412;2023-03-23T01:11:19;98728.39;;;9.67;90.31
67373;BME280;54257;54.496;18.412;2023-03-23T01:13:52;98728.39;;;9.66;90.25
67373;BME280;54257;54.496;18.412;2023-03-23T01:16:21;98731.46;;;9.65;90.27
67373;BME280;54257;54.496;18.412;2023-03-23T01:18:56;98728.91;;;9.65;90.24
67373;BME280;54257;54.496;18.412;2023-03-23T01:21:25;98733.17;;;9.64;90.20
67373;BME280;54257;54.496;18.412;2023-03-23T01:23:59;98732.50;;;9.62;90.04
67373;BME280;54257;54.496;18.412;2023-03-23T01:26:38;98726.00;;;9.61;90.09
67373;BME280;54257;54.496;18.412;2023-03-23T01:29:07;98722.60;;;9.58;90.11
67373;BME280;54257;54.496;18.412;2023-03-23T01:31:55;98718.33;;;9.53;90.31
67373;BME280;54257;54.496;18.412;2023-03-23T01:34:24;98715.26;;;9.49;90.24
67373;BME280;54257;54.496;18.412;2023-03-23T01:37:03;98716.13;;;9.46;90.18
67373;BME280;54257;54.496;18.412;2023-03-23T01:39:43;98713.04;;;9.43;90.35
67373;BME280;54257;54.496;18.412;2023-03-23T01:42:24;98719.19;;;9.39;90.33
67373;BME280;54257;54.496;18.412;2023-03-23T01:47:56;98718.83;;;9.33;90.38
67373;BME280;54257;54.496;18.412;2023-03-23T01:50:26;98714.74;;;9.31;90.31
67373;BME280;54257;54.496;18.412;2023-03-23T01:53:02;98708.42;;;9.27;90.24
67373;BME280;54257;54.496;18.412;2023-03-23T01:55:41;98704.84;;;9.24;90.22
67373;BME280;54257;54.496;18.412;2023-03-23T01:58:32;98708.77;;;9.20;90.29
67373;BME280;54257;54.496;18.412;2023-03-23T02:01:12;98711.81;;;9.16;90.47
67373;BME280;54257;54.496;18.412;2023-03-23T02:03:55;98709.27;;;9.13;90.33
67373;BME280;54257;54.496;18.412;2023-03-23T02:06:33;98704.64;;;9.09;90.28
67373;BME280;54257;54.496;18.412;2023-03-23T02:09:07;98706.69;;;9.06;90.22
67373;BME280;54257;54.496;18.412;2023-03-23T02:11:41;98706.33;;;9.03;90.30
67373;BME280;54257;54.496;18.412;2023-03-23T02:14:14;98693.39;;;8.99;90.35
67373;BME280;54257;54.496;18.412;2023-03-23T02:34:01;98675.46;;;8.80;91.52
67373;BME280;54257;54.496;18.412;2023-03-23T02:37:01;98664.39;;;8.79;91.69
67373;BME280;54257;54.496;18.412;2023-03-23T02:39:38;98654.85;;;8.77;91.72
67373;BME280;54257;54.496;18.412;2023-03-23T02:42:16;98658.26;;;8.77;91.72
67373;BME280;54257;54.496;18.412;2023-03-23T02:44:52;98653.32;;;8.76;91.79
67373;BME280;54257;54.496;18.412;2023-03-23T02:47:45;98647.36;;;8.76;91.96
67373;BME280;54257;54.496;18.412;2023-03-23T02:50:22;98644.98;;;8.76;91.81
67373;BME280;54257;54.496;18.412;2023-03-23T02:53:12;98646.34;;;8.75;91.89
67373;BME280;54257;54.496;18.412;2023-03-23T02:55:54;98642.60;;;8.74;91.85
67373;BME280;54257;54.496;18.412;2023-03-23T02:58:24;98646.34;;;8.73;91.91
67373;BME280;54257;54.496;18.412;2023-03-23T03:00:56;98649.06;;;8.73;91.96
67373;BME280;54257;54.496;18.412;2023-03-23T03:03:33;98650.76;;;8.72;91.98
67373;BME280;54257;54.496;18.412;2023-03-23T03:06:41;98653.82;;;8.71;91.97
67373;BME280;54257;54.496;18.412;2023-03-23T03:15:28;98658.56;;;8.70;91.89
67373;BME280;54257;54.496;18.412;2023-03-23T03:18:16;98658.91;;;8.70;91.82
67373;BME280;54257;54.496;18.412;2023-03-23T03:20:53;98657.21;;;8.69;91.77
67373;BME280;54257;54.496;18.412;2023-03-23T03:23:24;98651.92;;;8.70;91.90
67373;BME280;54257;54.496;18.412;2023-03-23T03:25:57;98652.48;;;8.72;91.74
67373;BME280;54257;54.496;18.412;2023-03-23T03:28:45;98654.83;;;8.66;91.47
67373;BME280;54257;54.496;18.412;2023-03-23T03:31:32;98657.55;;;8.64;91.70
67373;BME280;54257;54.496;18.412;2023-03-23T03:34:08;98652.77;;;8.60;91.68
67373;BME280;54257;54.496;18.412;2023-03-23T03:36:37;98645.95;;;8.56;91.59
67373;BME280;54257;54.496;18.412;2023-03-23T03:39:14;98640.31;;;8.51;91.99
67373;BME280;54257;54.496;18.412;2023-03-23T03:41:49;98641.66;;;8.47;92.12
67373;BME280;54257;54.496;18.412;2023-03-23T03:44:18;98639.94;;;8.43;92.42
67373;BME280;54257;54.496;18.412;2023-03-23T03:46:54;98644.02;;;8.39;92.85
67373;BME280;54257;54.496;18.412;2023-03-23T03:49:29;98648.92;;;8.36;92.94
67373;BME280;54257;54.496;18.412;2023-03-23T03:52:00;98644.83;;;8.34;93.06
67373;BME280;54257;54.496;18.412;2023-03-23T03:54:36;98638.52;;;8.33;93.21
67373;BME280;54257;54.496;18.412;2023-03-23T03:57:13;98626.44;;;8.31;93.35
67373;BME280;54257;54.496;18.412;2023-03-23T03:59:45;98619.27;;;8.30;93.59
67373;BME280;54257;54.496;18.412;2023-03-23T04:02:21;98624.21;;;8.30;93.91
67373;BME280;54257;54.496;18.412;2023-03-23T04:04:53;98641.89;;;8.29;94.16
67373;BME280;54257;54.496;18.412;2023-03-23T04:07:32;98636.28;;;8.28;94.36
67373;BME280;54257;54.496;18.412;2023-03-23T04:10:07;98631.34;;;8.29;94.42
67373;BME280;54257;54.496;18.412;2023-03-23T04:12:45;98621.64;;;8.28;94.47
67373;BME280;54257;54.496;18.412;2023-03-23T04:15:20;98615.52;;;8.29;94.45
67373;BME280;54257;54.496;18.412;2023-03-23T04:17:50;98613.82;;;8.29;94.35
67373;BME280;54257;54.496;18.412;2023-03-23T04:20:29;98609.58;;;8.30;94.32
67373;BME280;54257;54.496;18.412;2023-03-23T04:23:20;98606.52;;;8.30;94.25
67373;BME280;54257;54.496;18.412;2023-03-23T04:25:53;98602.94;;;8.30;94.42
67373;BME280;54257;54.496;18.412;2023-03-23T04:28:27;98602.79;;;8.31;94.49
67373;BME280;54257;54.496;18.412;2023-03-23T04:31:01;98605.68;;;8.32;94.73
67373;BME280;54257;54.496;18.412;2023-03-23T04:33:37;98594.80;;;8.33;94.70
67373;BME280;54257;54.496;18.412;2023-03-23T04:36:09;98609.11;;;8.35;94.60
67373;BME280;54257;54.496;18.412;2023-03-23T04:38:42;98608.10;;;8.35;94.75
67373;BME280;54257;54.496;18.412;2023-03-23T04:41:25;98604.17;;;8.35;94.80
67373;BME280;54257;54.496;18.412;2023-03-23T04:44:00;98605.20;;;8.36;94.65
67373;BME280;54257;54.496;18.412;2023-03-23T04:46:33;98607.92;;;8.36;94.68
67373;BME280;54257;54.496;18.412;2023-03-23T04:49:05;98605.20;;;8.37;94.81
67373;BME280;54257;54.496;18.412;2023-03-23T04:51:50;98602.14;;;8.37;94.77
67373;BME280;54257;54.496;18.412;2023-03-23T04:54:24;98590.41;;;8.37;94.91
67373;BME280;54257;54.496;18.412;2023-03-23T04:57:18;98581.90;;;8.37;95.11
67373;BME280;54257;54.496;18.412;2023-03-23T04:59:47;98579.86;;;8.37;95.09
67373;BME280;54257;54.496;18.412;2023-03-23T05:02:16;98582.91;;;8.37;95.17
67373;BME280;54257;54.496;18.412;2023-03-23T05:04:50;98579.19;;;8.38;95.16
67373;BME280;54257;54.496;18.412;2023-03-23T05:07:34;98575.46;;;8.39;95.16
67373;BME280;54257;54.496;18.412;2023-03-23T05:10:10;98574.44;;;8.41;95.14
67373;BME280;54257;54.496;18.412;2023-03-23T05:12:49;98571.89;;;8.42;95.24
67373;BME280;54257;54.496;18.412;2023-03-23T05:15:25;98566.95;;;8.43;95.29
67373;BME280;54257;54.496;18.412;2023-03-23T05:18:00;98565.42;;;8.44;95.42
67373;BME280;54257;54.496;18.412;2023-03-23T05:20:33;98562.36;;;8.46;95.52
67373;BME280;54257;54.496;18.412;2023-03-23T05:23:03;98564.92;;;8.48;95.43
67373;BME280;54257;54.496;18.412;2023-03-23T05:25:33;98564.41;;;8.49;95.24
67373;BME280;54257;54.496;18.412;2023-03-23T05:28:10;98563.23;;;8.51;95.19
67373;BME280;54257;54.496;18.412;2023-03-23T05:30:51;98562.04;;;8.53;95.15
67373;BME280;54257;54.496;18.412;2023-03-23T05:33:26;98553.69;;;8.54;95.00
67373;BME280;54257;54.496;18.412;2023-03-23T05:36:06;98551.67;;;8.56;94.95
67373;BME280;54257;54.496;18.412;2023-03-23T05:38:42;98554.39;;;8.57;94.84
67373;BME280;54257;54.496;18.412;2023-03-23T05:41:17;98556.77;;;8.59;94.78
67373;BME280;54257;54.496;18.412;2023-03-23T05:43:46;98554.89;;;8.61;94.86
67373;BME280;54257;54.496;18.412;2023-03-23T05:46:19;98555.23;;;8.62;94.75
67373;BME280;54257;54.496;18.412;2023-03-23T05:48:56;98560.71;;;8.64;94.72
67373;BME280;54257;54.496;18.412;2023-03-23T05:51:30;98553.38;;;8.66;94.74
67373;BME280;54257;54.496;18.412;2023-03-23T05:53:59;98551.52;;;8.69;94.56
67373;BME280;54257;54.496;18.412;2023-03-23T05:56:29;98549.30;;;8.73;94.54
67373;BME280;54257;54.496;18.412;2023-03-23T05:59:05;98547.77;;;8.76;94.52
67373;BME280;54257;54.496;18.412;2023-03-23T06:01:33;98537.40;;;8.80;94.47
67373;BME280;54257;54.496;18.412;2023-03-23T06:04:04;98525.64;;;8.84;94.22
67373;BME280;54257;54.496;18.412;2023-03-23T06:06:35;98519.17;;;8.89;94.12
67373;BME280;54257;54.496;18.412;2023-03-23T06:09:05;98523.09;;;8.93;93.70
67373;BME280;54257;54.496;18.412;2023-03-23T06:11:38;98527.34;;;8.93;93.64
67373;BME280;54257;54.496;18.412;2023-03-23T06:14:06;98533.63;;;8.94;93.58
67373;BME280;54257;54.496;18.412;2023-03-23T06:16:36;98538.60;;;8.97;93.60
67373;BME280;54257;54.496;18.412;2023-03-23T06:19:05;98542.15;;;9.00;93.30
67373;BME280;54257;54.496;18.412;2023-03-23T06:21:37;98554.07;;;9.03;93.15
67373;BME280;54257;54.496;18.412;2023-03-23T06:24:10;98555.29;;;9.05;92.89
67373;BME280;54257;54.496;18.412;2023-03-23T06:26:45;98553.91;;;9.06;92.88
67373;BME280;54257;54.496;18.412;2023-03-23T06:29:15;98556.46;;;9.09;92.84
67373;BME280;54257;54.496;18.412;2023-03-23T06:31:51;98552.54;;;9.11;92.95
67373;BME280;54257;54.496;18.412;2023-03-23T06:34:22;98546.59;;;9.15;92.81
67373;BME280;54257;54.496;18.412;2023-03-23T06:36:53;98534.81;;;9.18;92.77
67373;BME280;54257;54.496;18.412;2023-03-23T06:39:29;98540.61;;;9.21;92.67
67373;BME280;54257;54.496;18.412;2023-03-23T06:42:01;98534.98;;;9.24;92.61
67373;BME280;54257;54.496;18.412;2023-03-23T06:44:31;98532.27;;;9.28;92.57
67373;BME280;54257;54.496;18.412;2023-03-23T06:47:06;98534.64;;;9.32;92.54
67373;BME280;54257;54.496;18.412;2023-03-23T06:49:41;98528.31;;;9.39;92.35
67373;BME280;54257;54.496;18.412;2023-03-23T06:52:15;98515.52;;;9.44;92.03
67373;BME280;54257;54.496;18.412;2023-03-23T06:54:45;98500.02;;;9.46;91.17
67373;BME280;54257;54.496;18.412;2023-03-23T06:57:28;98500.50;;;9.51;90.97
67373;BME280;54257;54.496;18.412;2023-03-23T06:59:57;98511.05;;;9.61;90.83
67373;BME280;54257;54.496;18.412;2023-03-23T07:02:27;98500.45;;;9.68;90.66
67373;BME280;54257;54.496;18.412;2023-03-23T07:05:14;98490.87;;;9.75;90.28
67373;BME280;54257;54.496;18.412;2023-03-23T07:07:45;98495.96;;;9.80;90.12
67373;BME280;54257;54.496;18.412;2023-03-23T07:10:30;98490.66;;;9.87;89.12
67373;BME280;54257;54.496;18.412;2023-03-23T07:13:04;98475.27;;;9.91;88.98
67373;BME280;54257;54.496;18.412;2023-03-23T07:15:41;98480.04;;;9.93;87.62
67373;BME280;54257;54.496;18.412;2023-03-23T07:18:46;98494.02;;;9.92;87.28
67373;BME280;54257;54.496;18.412;2023-03-23T07:21:24;98503.23;;;9.92;87.04
67373;BME280;54257;54.496;18.412;2023-03-23T07:23:57;98490.98;;;9.90;86.93
67373;BME280;54257;54.496;18.412;2023-03-23T07:26:35;98482.27;;;9.90;87.06
67373;BME280;54257;54.496;18.412;2023-03-23T07:29:14;98479.88;;;9.93;86.73
67373;BME280;54257;54.496;18.412;2023-03-23T07:31:43;98476.81;;;9.93;86.63
67373;BME280;54257;54.496;18.412;2023-03-23T07:34:22;98478.34;;;9.95;86.96
67373;BME280;54257;54.496;18.412;2023-03-23T07:37:03;98478.65;;;10.00;87.36
67373;BME280;54257;54.496;18.412;2023-03-23T07:39:41;98468.71;;;10.07;87.64
67373;BME280;54257;54.496;18.412;2023-03-23T07:42:12;98463.38;;;10.16;87.58
67373;BME280;54257;54.496;18.412;2023-03-23T07:44:42;98460.10;;;10.23;87.11
67373;BME280;54257;54.496;18.412;2023-03-23T07:47:11;98452.23;;;10.29;86.80
67373;BME280;54257;54.496;18.412;2023-03-23T07:49:48;98459.36;;;10.35;85.91
67373;BME280;54257;54.496;18.412;2023-03-23T07:52:18;98456.75;;;10.41;85.83
67373;BME280;54257;54.496;18.412;2023-03-23T07:55:04;98456.52;;;10.48;85.27
67373;BME280;54257;54.496;18.412;2023-03-23T07:57:35;98447.05;;;10.59;85.72
67373;BME280;54257;54.496;18.412;2023-03-23T08:00:25;98449.33;;;10.74;85.57
67373;BME280;54257;54.496;18.412;2023-03-23T08:03:22;98455.70;;;10.87;85.17
67373;BME280;54257;54.496;18.412;2023-03-23T08:06:00;98453.71;;;10.97;84.15
67373;BME280;54257;54.496;18.412;2023-03-23T08:08:31;98453.14;;;11.05;84.15
67373;BME280;54257;54.496;18.412;2023-03-23T08:11:04;98451.33;;;11.14;83.87
67373;BME280;54257;54.496;18.412;2023-03-23T08:13:38;98455.11;;;11.29;84.49
67373;BME280;54257;54.496;18.412;2023-03-23T08:16:32;98462.34;;;11.40;84.01
67373;BME280;54257;54.496;18.412;2023-03-23T08:19:21;98468.27;;;11.44;83.60
67373;BME280;54257;54.496;18.412;2023-03-23T08:21:55;98466.06;;;11.42;83.24
67373;BME280;54257;54.496;18.412;2023-03-23T08:24:26;98467.30;;;11.40;82.44
67373;BME280;54257;54.496;18.412;2023-03-23T08:27:03;98479.49;;;11.34;82.37
67373;BME280;54257;54.496;18.412;2023-03-23T08:29:41;98476.84;;;11.26;82.62
67373;BME280;54257;54.496;18.412;2023-03-23T08:32:13;98483.14;;;11.12;82.33
67373;BME280;54257;54.496;18.412;2023-03-23T08:34:56;98476.71;;;11.04;83.65
67373;BME280;54257;54.496;18.412;2023-03-23T08:37:33;98477.66;;;10.95;84.09
67373;BME280;54257;54.496;18.412;2023-03-23T08:40:06;98476.33;;;10.90;84.97
67373;BME280;54257;54.496;18.412;2023-03-23T08:42:45;98478.98;;;10.82;85.71
67373;BME280;54257;54.496;18.412;2023-03-23T08:45:30;98485.02;;;10.72;86.17
67373;BME280;54257;54.496;18.412;2023-03-23T08:48:09;98484.73;;;10.66;87.25
67373;BME280;54257;54.496;18.412;2023-03-23T08:50:39;98481.55;;;10.59;88.07
67373;BME280;54257;54.496;18.412;2023-03-23T08:53:30;98481.37;;;10.59;88.74
67373;BME280;54257;54.496;18.412;2023-03-23T08:56:10;98487.20;;;10.55;89.24
67373;BME280;54257;54.496;18.412;2023-03-23T08:58:57;98480.92;;;10.52;89.56
67373;BME280;54257;54.496;18.412;2023-03-23T09:01:29;98477.17;;;10.49;89.74
67373;BME280;54257;54.496;18.412;2023-03-23T09:04:08;98474.80;;;10.47;90.52
67373;BME280;54257;54.496;18.412;2023-03-23T09:06:40;98474.30;;;10.47;90.99
67373;BME280;54257;54.496;18.412;2023-03-23T09:09:15;98470.03;;;10.46;91.21
67373;BME280;54257;54.496;18.412;2023-03-23T09:11:53;98467.14;;;10.45;91.36
67373;BME280;54257;54.496;18.412;2023-03-23T09:14:37;98465.09;;;10.45;92.13
67373;BME280;54257;54.496;18.412;2023-03-23T09:17:10;98463.20;;;10.46;92.59
67373;BME280;54257;54.496;18.412;2023-03-23T09:19:42;98467.63;;;10.47;92.91
67373;BME280;54257;54.496;18.412;2023-03-23T09:22:13;98465.23;;;10.47;92.87
67373;BME280;54257;54.496;18.412;2023-03-23T09:24:59;98464.73;;;10.46;93.14
67373;BME280;54257;54.496;18.412;2023-03-23T09:27:36;98471.77;;;10.43;93.52
67373;BME280;54257;54.496;18.412;2023-03-23T09:30:16;98475.03;;;10.38;94.03
67373;BME280;54257;54.496;18.412;2023-03-23T09:32:51;98470.12;;;10.33;94.83
67373;BME280;54257;54.496;18.412;2023-03-23T09:35:24;98464.15;;;10.32;95.31
67373;BME280;54257;54.496;18.412;2023-03-23T09:37:55;98461.77;;;10.30;95.50
67373;BME280;54257;54.496;18.412;2023-03-23T09:40:50;98461.80;;;10.28;96.23
67373;BME280;54257;54.496;18.412;2023-03-23T09:43:55;98463.34;;;10.27;96.13
67373;BME280;54257;54.496;18.412;2023-03-23T09:49:15;98466.26;;;10.23;97.09
67373;BME280;54257;54.496;18.412;2023-03-23T09:52:08;98468.30;;;10.22;97.42
67373;BME280;54257;54.496;18.412;2023-03-23T09:54:46;98473.59;;;10.20;97.57
67373;BME280;54257;54.496;18.412;2023-03-23T10:00:34;98474.43;;;10.24;98.35
67373;BME280;54257;54.496;18.412;2023-03-23T10:03:14;98474.44;;;10.25;98.34
67373;BME280;54257;54.496;18.412;2023-03-23T10:05:47;98476.66;;;10.26;98.70
67373;BME280;54257;54.496;18.412;2023-03-23T10:08:22;98479.54;;;10.30;99.17
67373;BME280;54257;54.496;18.412;2023-03-23T10:14:02;98478.46;;;10.37;98.98
67373;BME280;54257;54.496;18.412;2023-03-23T10:16:51;98480.98;;;10.42;98.65
67373;BME280;54257;54.496;18.412;2023-03-23T10:19:59;98483.20;;;10.43;97.66
67373;BME280;54257;54.496;18.412;2023-03-23T10:25:37;98486.39;;;10.50;97.67
67373;BME280;54257;54.496;18.412;2023-03-23T10:28:19;98487.37;;;10.55;97.63
67373;BME280;54257;54.496;18.412;2023-03-23T10:30:55;98484.45;;;10.58;97.02
67373;BME280;54257;54.496;18.412;2023-03-23T10:33:37;98488.19;;;10.62;96.84
67373;BME280;54257;54.496;18.412;2023-03-23T10:36:27;98486.27;;;10.63;96.48
67373;BME280;54257;54.496;18.412;2023-03-23T10:39:18;98480.27;;;10.69;96.08
67373;BME280;54257;54.496;18.412;2023-03-23T10:42:23;98485.35;;;10.73;95.87
67373;BME280;54257;54.496;18.412;2023-03-23T10:45:09;98490.50;;;10.71;95.67
67373;BME280;54257;54.496;18.412;2023-03-23T10:48:29;98491.19;;;10.71;95.66
67373;BME280;54257;54.496;18.412;2023-03-23T10:50:55;98488.91;;;10.78;95.37
67373;BME280;54257;54.496;18.412;2023-03-23T10:53:36;98488.55;;;10.79;95.00
67373;BME280;54257;54.496;18.412;2023-03-23T10:56:51;98483.44;;;10.78;95.14
67373;BME280;54257;54.496;18.412;2023-03-23T10:59:27;98477.92;;;10.83;95.08
67373;BME280;54257;54.496;18.412;2023-03-23T11:02:20;98483.66;;;10.91;94.51
67373;BME280;54257;54.496;18.412;2023-03-23T11:05:02;98484.30;;;10.96;94.08
67373;BME280;54257;54.496;18.412;2023-03-23T11:07:37;98482.58;;;11.01;94.34
67373;BME280;54257;54.496;18.412;2023-03-23T11:10:37;98476.38;;;11.03;93.64
67373;BME280;54257;54.496;18.412;2023-03-23T11:13:30;98472.96;;;11.04;92.75
67373;BME280;54257;54.496;18.412;2023-03-23T11:16:24;98470.23;;;11.04;92.62
67373;BME280;54257;54.496;18.412;2023-03-23T11:18:56;98466.80;;;11.04;93.62
67373;BME280;54257;54.496;18.412;2023-03-23T11:21:45;98466.45;;;11.06;92.97
67373;BME280;54257;54.496;18.412;2023-03-23T11:24:25;98464.20;;;11.08;93.44
67373;BME280;54257;54.496;18.412;2023-03-23T11:26:58;98459.59;;;11.09;92.08
67373;BME280;54257;54.496;18.412;2023-03-23T11:29:32;98456.70;;;11.05;91.96
67373;BME280;54257;54.496;18.412;2023-03-23T11:35:03;98452.41;;;11.09;92.70
67373;BME280;54257;54.496;18.412;2023-03-23T11:37:54;98455.25;;;11.14;92.89
67373;BME280;54257;54.496;18.412;2023-03-23T11:40:31;98449.39;;;11.20;92.01
67373;BME280;54257;54.496;18.412;2023-03-23T11:43:20;98453.75;;;11.27;91.49
67373;BME280;54257;54.496;18.412;2023-03-23T11:48:57;98449.91;;;11.49;90.40
67373;BME280;54257;54.496;18.412;2023-03-23T11:51:36;98446.38;;;11.60;89.38
67373;BME280;54257;54.496;18.412;2023-03-23T11:54:29;98459.67;;;11.62;87.83
67373;BME280;54257;54.496;18.412;2023-03-23T11:57:09;98456.39;;;11.66;87.97
67373;BME280;54257;54.496;18.412;2023-03-23T11:59:40;98455.41;;;11.75;88.50
67373;BME280;54257;54.496;18.412;2023-03-23T12:11:13;98449.42;;;12.16;84.32
67373;BME280;54257;54.496;18.412;2023-03-23T12:14:11;98452.80;;;12.31;84.99
67373;BME280;54257;54.496;18.412;2023-03-23T12:16:53;98451.85;;;12.36;84.09
67373;BME280;54257;54.496;18.412;2023-03-23T12:25:42;98445.39;;;12.45;83.69
67373;BME280;54257;54.496;18.412;2023-03-23T12:28:50;98453.70;;;12.50;82.70
67373;BME280;54257;54.496;18.412;2023-03-23T12:34:46;98439.77;;;12.54;82.00
67373;BME280;54257;54.496;18.412;2023-03-23T12:37:25;98439.55;;;12.57;81.95
67373;BME280;54257;54.496;18.412;2023-03-23T12:48:56;98451.73;;;12.54;81.59
67373;BME280;54257;54.496;18.412;2023-03-23T12:51:58;98445.92;;;12.54;81.91
67373;BME280;54257;54.496;18.412;2023-03-23T12:55:04;98435.42;;;12.58;82.54
67373;BME280;54257;54.496;18.412;2023-03-23T12:57:43;98436.05;;;12.60;81.79
67373;BME280;54257;54.496;18.412;2023-03-23T13:00:24;98433.64;;;12.62;82.24
67373;BME280;54257;54.496;18.412;2023-03-23T13:05:53;98437.56;;;12.73;81.91
67373;BME280;54257;54.496;18.412;2023-03-23T13:08:41;98432.16;;;12.79;80.96
67373;BME280;54257;54.496;18.412;2023-03-23T13:11:22;98438.56;;;12.84;81.21
67373;BME280;54257;54.496;18.412;2023-03-23T13:14:07;98441.57;;;12.80;81.11
67373;BME280;54257;54.496;18.412;2023-03-23T13:16:55;98448.20;;;12.73;81.28
67373;BME280;54257;54.496;18.412;2023-03-23T13:22:56;98442.60;;;12.68;81.65
67373;BME280;54257;54.496;18.412;2023-03-23T13:25:45;98445.00;;;12.68;80.98
67373;BME280;54257;54.496;18.412;2023-03-23T13:28:20;98446.86;;;12.71;81.42
67373;BME280;54257;54.496;18.412;2023-03-23T13:33:25;98449.48;;;12.78;82.00
67373;BME280;54257;54.496;18.412;2023-03-23T13:36:10;98451.23;;;12.75;81.53
67373;BME280;54257;54.496;18.412;2023-03-23T13:38:50;98443.42;;;12.81;82.24
67373;BME280;54257;54.496;18.412;2023-03-23T13:41:25;98441.29;;;12.85;82.01
67373;BME280;54257;54.496;18.412;2023-03-23T13:44:14;98437.60;;;12.91;81.38
67373;BME280;54257;54.496;18.412;2023-03-23T13:46:54;98440.46;;;12.94;80.50
67373;BME280;54257;54.496;18.412;2023-03-23T13:49:25;98440.71;;;12.99;80.47
67373;BME280;54257;54.496;18.412;2023-03-23T13:52:18;98452.51;;;13.00;80.25
67373;BME280;54257;54.496;18.412;2023-03-23T13:54:51;98459.94;;;12.98;81.04
67373;BME280;54257;54.496;18.412;2023-03-23T13:57:36;98457.58;;;12.94;81.30
67373;BME280;54257;54.496;18.412;2023-03-23T14:00:33;98459.32;;;12.93;81.72
67373;BME280;54257;54.496;18.412;2023-03-23T14:03:15;98464.54;;;12.89;80.62
67373;BME280;54257;54.496;18.412;2023-03-23T14:11:18;98467.92;;;12.72;80.12
67373;BME280;54257;54.496;18.412;2023-03-23T14:16:20;98465.23;;;12.67;81.09
67373;BME280;54257;54.496;18.412;2023-03-23T14:18:59;98465.44;;;12.66;80.66
67373;BME280;54257;54.496;18.412;2023-03-23T14:21:40;98467.20;;;12.62;80.25
67373;BME280;54257;54.496;18.412;2023-03-23T14:24:12;98462.41;;;12.62;80.84
67373;BME280;54257;54.496;18.412;2023-03-23T14:26:44;98458.33;;;12.60;80.72
67373;BME280;54257;54.496;18.412;2023-03-23T14:29:27;98451.90;;;12.56;80.62
67373;BME280;54257;54.496;18.412;2023-03-23T14:31:58;98458.23;;;12.56;80.93
67373;BME280;54257;54.496;18.412;2023-03-23T14:34:31;98458.17;;;12.59;81.67
67373;BME280;54257;54.496;18.412;2023-03-23T14:37:13;98459.86;;;12.61;81.60
67373;BME280;54257;54.496;18.412;2023-03-23T14:39:49;98453.59;;;12.67;81.73
67373;BME280;54257;54.496;18.412;2023-03-23T14:42:30;98456.45;;;12.71;81.67
67373;BME280;54257;54.496;18.412;2023-03-23T14:45:11;98458.65;;;12.73;81.71
67373;BME280;54257;54.496;18.412;2023-03-23T14:48:05;98459.84;;;12.73;81.35
67373;BME280;54257;54.496;18.412;2023-03-23T14:50:50;98460.55;;;12.72;81.39
67373;BME280;54257;54.496;18.412;2023-03-23T14:53:25;98459.27;;;12.66;81.54
67373;BME280;54257;54.496;18.412;2023-03-23T14:56:16;98461.05;;;12.61;81.93
67373;BME280;54257;54.496;18.412;2023-03-23T14:58:52;98460.22;;;12.60;82.20
67373;BME280;54257;54.496;18.412;2023-03-23T15:04:28;98460.34;;;12.52;82.41
67373;BME280;54257;54.496;18.412;2023-03-23T15:07:06;98457.28;;;12.51;82.57
67373;BME280;54257;54.496;18.412;2023-03-23T15:09:42;98454.36;;;12.51;82.71
67373;BME280;54257;54.496;18.412;2023-03-23T15:12:33;98460.85;;;12.52;82.74
67373;BME280;54257;54.496;18.412;2023-03-23T15:15:20;98463.23;;;12.55;82.97
67373;BME280;54257;54.496;18.412;2023-03-23T15:17:59;98468.29;;;12.59;83.24
67373;BME280;54257;54.496;18.412;2023-03-23T15:21:11;98467.20;;;12.63;83.04
67373;BME280;54257;54.496;18.412;2023-03-23T15:23:51;98469.04;;;12.66;82.90
67373;BME280;54257;54.496;18.412;2023-03-23T15:26:32;98469.06;;;12.65;82.63